MDLR/LRM METAR and TAF weather

Enter ICAO airport designator
Station Type Date Time Source
MDLR METAR 2024/04/18 03:00 UTC NOAA

MDLR 180300Z 00000KT 9999 SCT018 24/23 Q1015


Station Type Date Time Source
MDLR Decoded METAR 2024/04/18 03:00 UTC NOAA

La Romana International Airport, Dominican Republic (MDLR) 18-25N 068-57W
Apr 17, 2024 - 11:00 PM EDT / 2024.04.18 0300 UTC
Wind: Calm:0
Visibility: greater than 7 mile(s):0
Sky conditions: partly cloudy
Temperature: 75 F (24 C)
Dew Point: 73 F (23 C)
Relative Humidity: 94%
Pressure (altimeter): 29.97 in. Hg (1015 hPa)
ob: MDLR 180300Z 00000KT 9999 SCT018 24/23 Q1015
cycle: 3

Station Type Date Time Source
MDLR TAF 2024/04/18 18:10 UTC NOAA